EmailTwitter


Surface observations / Quebec / CYMX

Regions: Quebec | Canada | USA | Europe | France | UK | Elsewhere
Station
Display
Info & Location for CYMX | Help decoding METAR

Weather Conditions observed on 2018/11/14 at 15:00 UTC at MONTREAL MIRABEL, QB (CYMX)

Sky conditions: partly cloudy.

Temperature: -10.0 Celsius.

Dewpoint: -19.0 Celsius.

Relative Humidity: 48%

Windchill Factor: -18.

Windchill Factor (Gusts): -21.

Winds: Northwest at 20 km/h or 11 knots.

Gust: 41 km/h or 22 knots.

Mean Sea level Pressure: 102.86 kilopascals.

Altimeter Setting (QNH): 102.78 kilopascals or 30.35 inches of mercury.

Horizontal visibility: 45.00 statute miles or 72.00 kilometers.

Height of the Ceiling: 1402 metres ( 4600 feet ).

Coded METAR:

CYMX 141500Z 30011G22KT 240V340 45SM BKN046 M10/M19 A3035 RMK SC6 SLP286=